Harvey, West Virginia
Current Conditions -  °F | °C
As of 2:51 PM on Saturday 25 Oct 2014 (Local Time) from KBKW Reporting Station
Broken Clouds Broken Clouds  
Wind Chill: 63°   Ceiling: 6500
Heat Index: 63°   Visibility: 10mi
Dew Point: 43°   Wind: 13mph
Humidity: 48%   Direction: 260°W
Pressure: 29.99"   Gusts: NA
Location:  37.9785°N, 81.1005°W
Report Text: KBKW 251851Z AUTO 26011KT 10SM SCT050 BKN065 17/06 A2999 RMK AO2 SLP154 T01720061 TSNO
Loading
Personal Weather Stations






























Interactive Weather Map
Tropical Storm Tracking
New forecast layout! Learn more

10-Day Weather Forecast

Advertisements
Track Severe Weather on mobile